Time;durP1;ratioP1;P1;durP2;ratioP2;P2;SDS_P1;SDS_P2;PMS_P1;PMS_P2;Temp;Humidity;BMP_temperature;BMP_pressure;BME280_temperature;BME280_humidity;BME280_pressure;Samples;Min_cycle;Max_cycle;Signal;HPM_P1;HPM_P2
2021/07/26 00:02:21;;;;;;;16.70;13.90;;;;;;;22.41;64.86;100981.61;1792256;78;21656;-65
2021/07/26 00:04:47;;;;;;;16.00;14.33;;;;;;;22.36;64.84;100979.14;1770177;78;21084;-65
2021/07/26 00:07:14;;;;;;;13.83;12.43;;;;;;;22.27;64.81;100977.05;1795484;78;21172;-65
2021/07/26 00:09:40;;;;;;;14.55;13.05;;;;;;;22.24;64.84;100977.41;1794604;78;21437;-65
2021/07/26 00:12:08;;;;;;;16.50;12.80;;;;;;;22.25;64.65;100979.91;1793398;78;21148;-65
2021/07/26 00:14:35;;;;;;;17.05;14.43;;;;;;;22.25;64.32;100981.25;1792568;79;21479;-65
2021/07/26 00:17:01;;;;;;;17.77;15.08;;;;;;;22.22;64.33;100987.48;1795439;78;21034;-65
2021/07/26 00:19:28;;;;;;;17.27;14.33;;;;;;;22.18;64.31;100986.21;1794259;79;21444;-65
2021/07/26 00:21:54;;;;;;;18.12;15.50;;;;;;;22.15;64.35;100986.05;1768294;79;21049;-65
2021/07/26 00:24:20;;;;;;;21.23;15.85;;;;;;;22.12;64.32;100984.25;1799660;79;21097;-65
2021/07/26 00:26:47;;;;;;;18.32;15.50;;;;;;;22.07;64.27;100982.97;1791778;78;21050;-65
2021/07/26 00:29:15;;;;;;;21.25;16.82;;;;;;;22.01;64.30;100982.87;1800934;78;21596;-65
2021/07/26 00:31:41;;;;;;;18.32;16.07;;;;;;;21.95;64.24;100983.59;1797118;78;21097;-65
2021/07/26 00:34:21;;;;;;;27.87;17.07;;;;;;;21.91;64.29;100978.30;1804263;78;21253;-65
2021/07/26 00:37:02;;;;;;;22.95;15.85;;;;;;;21.92;64.27;100979.42;1777045;80;21103;-65
2021/07/26 00:39:33;;;;;;;26.42;17.00;;;;;;;21.93;64.04;100979.76;1782274;79;21062;-65
2021/07/26 00:42:00;;;;;;;19.07;15.88;;;;;;;21.91;64.02;100981.80;1782956;78;21704;-65
2021/07/26 00:44:29;;;;;;;18.50;15.80;;;;;;;21.87;64.14;100983.16;1812175;78;21105;-66
2021/07/26 00:46:56;;;;;;;20.75;17.48;;;;;;;21.84;64.24;100983.55;1746106;80;21069;-66
2021/07/26 00:49:24;;;;;;;19.37;16.50;;;;;;;21.81;64.26;100979.89;1756603;79;21718;-65
2021/07/26 00:51:53;;;;;;;22.62;17.25;;;;;;;21.75;64.45;100980.09;1748063;79;21089;-65
2021/07/26 00:54:28;;;;;;;18.40;16.05;;;;;;;21.70;64.92;100976.64;1778123;79;21050;-66
2021/07/26 00:56:57;;;;;;;18.57;14.87;;;;;;;21.70;65.13;100978.47;1799329;78;21026;-65
2021/07/26 00:59:23;;;;;;;20.55;15.60;;;;;;;21.71;65.23;100976.95;1805908;78;21015;-66
2021/07/26 01:01:49;;;;;;;20.50;15.72;;;;;;;21.74;65.24;100975.77;1796345;78;21137;-66
2021/07/26 01:04:16;;;;;;;18.87;16.12;;;;;;;21.77;65.24;100971.88;1804436;78;21512;-65
2021/07/26 01:06:43;;;;;;;20.85;15.88;;;;;;;21.75;65.23;100972.05;1796132;78;21466;-66
2021/07/26 01:09:09;;;;;;;18.45;14.80;;;;;;;21.72;65.22;100965.75;1803747;78;21113;-65
2021/07/26 01:11:35;;;;;;;20.12;15.18;;;;;;;21.68;65.25;100967.94;1795164;78;21498;-65
2021/07/26 01:14:02;;;;;;;19.20;15.25;;;;;;;21.67;65.36;100970.30;1778290;78;21105;-66
2021/07/26 01:16:29;;;;;;;21.57;15.50;;;;;;;21.65;65.46;100969.66;1772231;79;21070;-66
2021/07/26 01:18:56;;;;;;;23.70;15.32;;;;;;;21.68;65.46;100968.45;1773421;79;21089;-66
2021/07/26 01:21:23;;;;;;;18.15;14.98;;;;;;;21.70;65.52;100971.28;1775240;79;21110;-66
2021/07/26 01:23:51;;;;;;;20.75;14.18;;;;;;;21.73;65.69;100965.23;1777465;79;21000;-66
2021/07/26 01:26:24;;;;;;;18.87;14.45;;;;;;;21.74;65.83;100968.22;1777767;79;21514;-65
2021/07/26 01:28:56;;;;;;;16.77;14.98;;;;;;;21.69;66.11;100964.77;1774012;79;21560;-65
2021/07/26 01:31:22;;;;;;;16.60;13.85;;;;;;;21.65;65.96;100960.29;1777366;79;21012;-66
2021/07/26 01:33:49;;;;;;;17.05;14.85;;;;;;;21.60;65.78;100969.37;1776324;79;21015;-66
2021/07/26 01:36:15;;;;;;;18.60;14.55;;;;;;;21.55;65.68;100958.34;1779864;79;21418;-65
2021/07/26 01:38:45;;;;;;;18.20;14.10;;;;;;;21.50;65.82;100966.94;1789786;79;21964;-65
2021/07/26 01:41:17;;;;;;;18.62;13.25;;;;;;;21.49;65.86;100965.78;1789472;79;21555;-66
2021/07/26 01:46:50;;;;;;;17.00;14.20;;;;;;;21.52;65.93;100969.44;1769754;79;21097;-65
2021/07/26 01:49:51;;;;;;;19.62;14.93;;;;;;;21.52;66.08;100964.09;1757814;79;21095;-65
2021/07/26 01:52:18;;;;;;;18.57;14.58;;;;;;;21.49;66.21;100964.45;1772616;79;21112;-65
2021/07/26 01:54:45;;;;;;;17.90;14.53;;;;;;;21.47;66.41;100965.14;1782602;79;21322;-66
2021/07/26 01:57:12;;;;;;;15.35;12.60;;;;;;;21.45;66.80;100969.30;1781052;79;21046;-65
2021/07/26 01:59:39;;;;;;;16.45;14.03;;;;;;;21.44;66.90;100963.61;1771118;79;21121;-65
2021/07/26 02:02:05;;;;;;;16.55;12.82;;;;;;;21.47;66.91;100966.48;1782884;79;21090;-66
2021/07/26 02:04:32;;;;;;;14.15;12.65;;;;;;;21.50;66.87;100965.61;1754970;79;21089;-66
2021/07/26 02:06:59;;;;;;;17.90;14.95;;;;;;;21.54;66.75;100969.27;1749688;79;21062;-66
2021/07/26 02:09:25;;;;;;;16.27;13.18;;;;;;;21.54;66.76;100968.75;1782992;79;21105;-65
2021/07/26 02:11:52;;;;;;;14.60;12.82;;;;;;;21.53;66.92;100973.77;1782353;79;21477;-66
2021/07/26 02:14:18;;;;;;;15.35;13.58;;;;;;;21.50;66.88;100975.46;1777400;79;21164;-65
2021/07/26 02:16:52;;;;;;;14.90;12.65;;;;;;;21.48;66.72;100976.98;1773864;79;21750;-65
2021/07/26 02:19:19;;;;;;;16.37;12.47;;;;;;;21.46;66.58;100974.96;1787895;79;21033;-66
2021/07/26 02:21:46;;;;;;;15.20;12.33;;;;;;;21.43;66.56;100975.83;1787063;79;21574;-65
2021/07/26 02:24:12;;;;;;;15.18;13.08;;;;;;;21.41;66.60;100975.19;1785761;79;21114;-65
2021/07/26 02:26:39;;;;;;;15.78;12.07;;;;;;;21.43;66.41;100974.49;1752771;79;21096;-65
2021/07/26 02:29:05;;;;;;;15.30;12.82;;;;;;;21.41;66.43;100973.84;1766198;79;21248;-65
2021/07/26 02:31:32;;;;;;;16.65;12.53;;;;;;;21.39;66.56;100970.01;1761656;79;21101;-66
2021/07/26 02:33:59;;;;;;;17.67;13.80;;;;;;;21.39;66.75;100975.36;1753667;79;21089;-65
2021/07/26 02:36:25;;;;;;;14.05;12.30;;;;;;;21.36;66.89;100971.70;1761655;79;21057;-65
2021/07/26 02:38:52;;;;;;;14.33;12.03;;;;;;;21.34;66.97;100973.73;1755080;79;21129;-66
2021/07/26 02:41:18;;;;;;;18.67;13.13;;;;;;;21.31;66.95;100978.92;1766371;79;21643;-65
2021/07/26 02:43:45;;;;;;;17.17;13.93;;;;;;;21.30;66.85;100981.77;1765663;79;21023;-65
2021/07/26 02:46:11;;;;;;;16.67;12.58;;;;;;;21.29;66.72;100986.30;1782931;80;21084;-66
2021/07/26 02:48:39;;;;;;;16.87;14.07;;;;;;;21.31;66.63;100989.63;1752426;80;21033;-66
2021/07/26 02:51:05;;;;;;;16.85;14.63;;;;;;;21.31;66.48;100992.30;1778601;80;21037;-66
2021/07/26 02:53:34;;;;;;;17.52;14.73;;;;;;;21.27;66.55;100995.54;1777692;80;21113;-65
2021/07/26 02:56:01;;;;;;;16.73;14.98;;;;;;;21.20;66.74;100988.73;1748750;79;21018;-65
2021/07/26 02:58:27;;;;;;;17.20;14.18;;;;;;;21.13;67.02;100993.95;1785035;80;21030;-65
2021/07/26 03:00:53;;;;;;;17.35;14.20;;;;;;;21.10;67.26;100996.98;1761067;80;21625;-65
2021/07/26 03:03:20;;;;;;;16.10;13.85;;;;;;;21.10;67.39;100990.30;1756278;80;21072;-65
2021/07/26 03:05:47;;;;;;;16.60;14.03;;;;;;;21.17;67.36;100990.93;1753278;79;21580;-65
2021/07/26 03:08:13;;;;;;;19.35;13.48;;;;;;;21.21;67.32;100992.23;1759081;79;21548;-66
2021/07/26 03:10:40;;;;;;;19.57;15.18;;;;;;;21.20;67.35;100987.39;1773991;80;21112;-65
2021/07/26 03:13:07;;;;;;;17.95;14.03;;;;;;;21.19;67.45;100995.59;1751069;80;21672;-62
2021/07/26 03:15:36;;;;;;;19.45;13.08;;;;;;;21.17;67.40;100986.91;1751495;80;21083;-63
2021/07/26 03:18:05;;;;;;;17.20;14.55;;;;;;;21.15;67.46;100984.41;1777890;78;20994;-62
2021/07/26 03:20:32;;;;;;;16.35;13.70;;;;;;;21.13;67.60;100983.73;1732628;79;21021;-63
2021/07/26 03:23:05;;;;;;;16.97;14.58;;;;;;;21.17;67.57;100986.91;1775472;80;21045;-59
2021/07/26 03:25:33;;;;;;;23.10;13.63;;;;;;;21.25;67.50;100992.19;1751657;80;21038;-66
2021/07/26 03:28:01;;;;;;;15.30;13.68;;;;;;;21.30;67.53;100989.32;1748035;80;21131;-59
2021/07/26 03:30:28;;;;;;;16.52;13.72;;;;;;;21.37;67.66;100985.91;1742326;79;21138;-58
2021/07/26 03:32:55;;;;;;;19.60;14.13;;;;;;;21.43;67.60;100997.25;1758207;79;20985;-58
2021/07/26 03:35:22;;;;;;;18.95;15.30;;;;;;;21.47;67.36;100993.25;1773923;80;21115;-59
2021/07/26 03:37:51;;;;;;;17.25;14.15;;;;;;;21.49;67.01;100997.39;1741603;80;21070;-58
2021/07/26 03:40:18;;;;;;;17.02;13.60;;;;;;;21.49;66.87;100997.91;1735950;80;21070;-59
2021/07/26 03:42:44;;;;;;;19.05;14.33;;;;;;;21.54;66.81;101001.40;1771629;80;21398;-59
2021/07/26 03:45:14;;;;;;;17.37;14.18;;;;;;;21.63;66.77;101006.48;1771377;79;21371;-59
2021/07/26 03:47:40;;;;;;;17.45;14.15;;;;;;;21.69;66.65;101003.09;1773938;79;21587;-59
2021/07/26 03:50:08;;;;;;;16.37;14.18;;;;;;;21.75;66.67;101004.20;1773239;79;21156;-58
2021/07/26 03:52:55;;;;;;;18.52;14.18;;;;;;;21.78;66.43;101007.03;1776322;80;21018;-58
2021/07/26 03:55:25;;;;;;;20.80;15.05;;;;;;;21.75;66.45;101004.20;1767998;80;22407;-68
2021/07/26 03:57:52;;;;;;;17.98;15.85;;;;;;;21.73;66.50;101010.25;1769025;79;21118;-60
2021/07/26 04:00:21;;;;;;;22.15;14.15;;;;;;;21.72;66.52;101009.95;1768035;79;21105;-62
2021/07/26 04:03:04;;;;;;;17.85;15.40;;;;;;;21.75;66.37;101015.43;1767605;80;21529;-62
2021/07/26 04:05:30;;;;;;;16.97;14.30;;;;;;;21.81;66.33;101017.39;1769049;79;21065;-71
2021/07/26 04:07:54;;;;;;;19.25;15.35;;;;;;;21.84;66.37;101011.16;1771463;80;21081;-62
2021/07/26 04:10:21;;;;;;;17.77;14.40;;;;;;;21.89;66.42;101015.47;1771122;78;21180;-61
2021/07/26 04:12:50;;;;;;;18.73;15.28;;;;;;;21.94;66.33;101018.95;1768663;79;21081;-63
2021/07/26 04:15:17;;;;;;;21.50;16.27;;;;;;;21.95;66.26;101016.57;1773649;79;21057;-63
2021/07/26 04:17:44;;;;;;;18.95;15.08;;;;;;;21.99;66.30;101019.23;1771866;79;21686;-61
2021/07/26 04:20:12;;;;;;;19.77;14.60;;;;;;;22.03;66.13;101015.16;1740201;80;21258;-62
2021/07/26 04:22:38;;;;;;;18.60;14.40;;;;;;;22.11;65.96;101018.77;1740041;80;21066;-62
2021/07/26 04:25:07;;;;;;;18.10;14.87;;;;;;;22.22;65.87;101023.16;1769960;79;21058;-61
2021/07/26 04:27:35;;;;;;;20.02;14.90;;;;;;;22.34;65.65;101018.23;1764839;80;21085;-61
2021/07/26 04:30:03;;;;;;;17.50;15.08;;;;;;;22.42;65.54;101022.12;1742324;80;21101;-61
2021/07/26 04:32:30;;;;;;;19.35;14.80;;;;;;;22.49;65.45;101012.02;1788064;78;21104;-65
2021/07/26 04:35:00;;;;;;;17.12;14.18;;;;;;;22.58;65.43;101012.25;1744819;80;21084;-60
2021/07/26 04:37:28;;;;;;;17.67;14.53;;;;;;;22.66;65.41;101009.44;1748114;80;21085;-59
2021/07/26 04:39:55;;;;;;;15.75;13.60;;;;;;;22.75;64.98;101015.56;1778746;78;21607;-61
2021/07/26 04:42:23;;;;;;;20.00;13.62;;;;;;;22.85;64.52;101016.58;1777538;80;21544;-56
2021/07/26 04:44:49;;;;;;;17.90;12.90;;;;;;;22.96;64.36;101012.92;1782787;78;21331;-63
2021/07/26 04:47:16;;;;;;;15.13;13.28;;;;;;;23.06;64.52;101018.00;1762219;80;21056;-60
2021/07/26 04:49:43;;;;;;;17.50;14.75;;;;;;;23.15;64.64;101018.21;1764961;79;21044;-66
2021/07/26 04:52:10;;;;;;;17.35;14.05;;;;;;;23.23;64.51;101014.55;1751654;80;21571;-66
2021/07/26 04:54:36;;;;;;;15.83;14.00;;;;;;;23.31;64.32;101016.30;1762117;80;21028;-65
2021/07/26 04:57:04;;;;;;;15.55;13.78;;;;;;;23.38;64.23;101018.53;1747017;80;21141;-69
2021/07/26 04:59:32;;;;;;;15.03;12.82;;;;;;;23.44;64.08;101020.45;1757503;80;21096;-62
2021/07/26 05:01:58;;;;;;;17.80;12.25;;;;;;;23.53;64.03;101012.57;1727840;79;21100;-71
2021/07/26 05:04:25;;;;;;;18.90;13.15;;;;;;;23.66;63.80;101015.08;1729007;81;21065;-69
2021/07/26 05:07:01;;;;;;;16.15;14.23;;;;;;;23.78;63.49;101014.03;1759593;80;21077;-62
2021/07/26 05:09:30;;;;;;;15.48;13.38;;;;;;;23.84;63.27;101012.77;1754941;79;21109;-64
2021/07/26 05:12:01;;;;;;;16.90;13.75;;;;;;;23.88;63.47;101012.69;1752203;79;21070;-68
2021/07/26 05:14:28;;;;;;;15.75;13.62;;;;;;;23.96;63.10;101014.93;1726891;81;21057;-68
2021/07/26 05:16:54;;;;;;;16.37;13.20;;;;;;;24.00;62.76;101008.12;1755444;79;21089;-68
2021/07/26 05:19:21;;;;;;;16.70;13.13;;;;;;;24.05;62.35;101005.16;1730459;81;21572;-67
2021/07/26 05:21:47;;;;;;;15.08;12.40;;;;;;;24.08;62.12;100995.88;1758743;79;21125;-69
2021/07/26 05:24:14;;;;;;;15.90;12.73;;;;;;;24.14;61.85;101006.34;1751579;79;21105;-67
2021/07/26 05:26:41;;;;;;;15.65;13.22;;;;;;;24.22;61.73;100998.95;1756349;79;21140;-68
2021/07/26 05:29:08;;;;;;;14.15;11.93;;;;;;;24.27;61.89;100993.80;1754561;79;21066;-67
2021/07/26 05:31:34;;;;;;;14.90;13.38;;;;;;;24.32;61.75;100997.77;1748838;79;21502;-66
2021/07/26 05:34:02;;;;;;;15.32;13.25;;;;;;;24.35;61.42;100993.34;1776610;79;21422;-67
2021/07/26 05:36:28;;;;;;;16.50;13.58;;;;;;;24.39;61.38;100995.41;1751998;79;21663;-66
2021/07/26 05:38:55;;;;;;;17.60;13.15;;;;;;;24.42;61.38;100987.48;1748360;80;21107;-66
2021/07/26 05:41:22;;;;;;;14.18;12.23;;;;;;;24.45;61.33;100979.02;1779236;79;21588;-72
2021/07/26 05:43:49;;;;;;;12.85;11.53;;;;;;;24.49;61.43;100986.98;1772704;79;21060;-69
2021/07/26 05:46:16;;;;;;;15.90;12.15;;;;;;;24.57;60.92;100986.03;1775830;79;21069;-67
2021/07/26 05:48:42;;;;;;;15.45;12.43;;;;;;;24.69;60.42;100985.75;1777410;78;21033;-65
2021/07/26 05:51:10;;;;;;;15.20;12.43;;;;;;;24.79;60.37;100975.44;1778304;79;21081;-69
2021/07/26 05:53:37;;;;;;;15.05;11.80;;;;;;;24.88;60.31;100981.48;1779071;79;20938;-65
2021/07/26 05:56:07;;;;;;;13.83;11.43;;;;;;;24.96;60.33;100990.70;1776541;79;21510;-66
2021/07/26 05:58:41;;;;;;;13.72;11.95;;;;;;;25.03;59.68;100988.02;1770797;79;21066;-65
2021/07/26 06:01:47;;;;;;;13.83;10.10;;;;;;;25.09;59.32;100989.09;1779768;79;21086;-62
2021/07/26 06:03:38;;;;;;;16.57;11.30;;;;;;;25.14;59.04;100987.95;1731328;79;21158;-65
2021/07/26 06:06:05;;;;;;;11.50;10.13;;;;;;;25.16;58.48;100988.05;1752772;80;21085;-67
2021/07/26 06:08:32;;;;;;;13.05;10.95;;;;;;;25.20;57.81;100989.81;1783455;80;21070;-65
2021/07/26 06:11:02;;;;;;;11.50;10.13;;;;;;;25.24;57.65;100994.30;1783616;79;21053;-67
2021/07/26 06:13:30;;;;;;;14.20;9.25;;;;;;;25.30;57.62;100997.53;1774626;79;21045;-69
2021/07/26 06:15:57;;;;;;;11.38;10.18;;;;;;;25.33;56.79;100995.25;1769958;79;21077;-66
2021/07/26 06:18:24;;;;;;;12.20;9.65;;;;;;;25.34;56.60;100996.09;1752145;80;21069;-66
2021/07/26 06:20:50;;;;;;;11.97;9.48;;;;;;;25.36;56.63;100998.88;1801380;78;21050;-68
2021/07/26 06:23:16;;;;;;;13.30;9.28;;;;;;;25.40;56.35;100992.06;1778053;79;22011;-68
2021/07/26 06:25:43;;;;;;;10.08;8.33;;;;;;;25.43;56.29;100999.41;1761448;80;21058;-65
2021/07/26 06:28:09;;;;;;;10.78;7.72;;;;;;;25.49;55.75;101009.38;1779496;78;21662;-67
2021/07/26 06:30:38;;;;;;;11.93;8.08;;;;;;;25.59;55.15;101008.45;1801352;78;21085;-66
2021/07/26 06:33:09;;;;;;;12.90;9.60;;;;;;;25.65;53.90;101014.86;1774717;79;21042;-67
2021/07/26 06:35:36;;;;;;;9.83;8.48;;;;;;;25.67;53.93;101014.13;1772883;79;21785;-64
2021/07/26 06:38:03;;;;;;;16.25;8.93;;;;;;;25.69;54.15;101016.13;1779150;79;21124;-65
2021/07/26 06:40:31;;;;;;;10.98;8.40;;;;;;;25.71;54.34;101010.81;1781063;80;21070;-61
2021/07/26 06:42:58;;;;;;;14.87;8.25;;;;;;;25.76;54.35;101016.94;1772901;80;21114;-66
2021/07/26 06:45:26;;;;;;;10.78;8.00;;;;;;;25.84;54.74;101020.78;1798100;77;21116;-65
2021/07/26 06:47:55;;;;;;;11.57;7.60;;;;;;;25.91;54.93;101015.38;1796845;78;21103;-65
2021/07/26 06:50:22;;;;;;;10.18;8.55;;;;;;;25.97;54.49;101017.78;1776194;79;21116;-66
2021/07/26 06:52:48;;;;;;;12.00;7.90;;;;;;;26.04;54.11;101017.24;1793006;78;21112;-65
2021/07/26 06:55:16;;;;;;;10.65;9.25;;;;;;;26.09;53.98;101022.83;1800021;78;21628;-65
2021/07/26 06:57:42;;;;;;;12.73;8.28;;;;;;;26.14;54.08;101023.87;1740625;79;21144;-64
2021/07/26 07:00:11;;;;;;;10.80;9.00;;;;;;;26.22;54.25;101032.25;1771851;78;21056;-64
2021/07/26 07:02:38;;;;;;;12.70;8.93;;;;;;;26.31;54.17;101028.83;1756648;79;21579;-66
2021/07/26 07:05:05;;;;;;;11.20;8.68;;;;;;;26.36;53.24;101024.97;1784691;78;21111;-66
2021/07/26 07:07:32;;;;;;;11.40;8.55;;;;;;;26.42;52.94;101025.98;1782051;78;21109;-64
2021/07/26 07:09:59;;;;;;;19.52;11.28;;;;;;;26.48;53.63;101028.66;1790445;78;21118;-64
2021/07/26 07:12:25;;;;;;;12.23;9.75;;;;;;;26.56;53.18;101031.62;1742871;80;21019;-61
2021/07/26 07:14:52;;;;;;;10.45;8.50;;;;;;;26.64;52.39;101036.82;1797652;78;21582;-65
2021/07/26 07:17:18;;;;;;;12.55;8.85;;;;;;;26.71;52.36;101031.92;1777884;78;21046;-67
2021/07/26 07:19:48;;;;;;;9.93;8.10;;;;;;;26.78;52.71;101036.27;1754138;80;21631;-66
2021/07/26 07:22:20;;;;;;;11.78;7.70;;;;;;;26.85;52.29;101028.14;1780398;79;21066;-60
2021/07/26 07:24:47;;;;;;;12.25;9.30;;;;;;;26.93;52.68;101037.31;1756827;79;22646;-63
2021/07/26 07:27:13;;;;;;;12.13;7.87;;;;;;;27.00;51.20;101027.83;1783637;79;21057;-64
2021/07/26 07:29:42;;;;;;;16.48;7.60;;;;;;;27.06;50.32;101031.03;1801039;78;21121;-64
2021/07/26 07:32:12;;;;;;;11.48;6.92;;;;;;;27.13;49.47;101035.04;1731454;81;21043;-64
2021/07/26 07:34:40;;;;;;;12.60;7.37;;;;;;;27.22;50.61;101037.27;1773313;79;21065;-64
2021/07/26 07:37:09;;;;;;;9.63;8.03;;;;;;;27.31;49.78;101039.75;1746390;80;21097;-63
2021/07/26 07:39:36;;;;;;;9.88;6.40;;;;;;;27.38;48.97;101044.58;1750721;80;21093;-63
2021/07/26 07:42:04;;;;;;;12.25;6.87;;;;;;;27.43;46.54;101041.52;1757139;80;21032;-66
2021/07/26 07:44:32;;;;;;;10.05;6.67;;;;;;;27.47;46.87;101038.38;1754799;80;21065;-64
2021/07/26 07:47:00;;;;;;;12.20;7.20;;;;;;;27.52;46.44;101038.55;1752420;80;21560;-62
2021/07/26 07:49:27;;;;;;;8.00;6.15;;;;;;;27.56;45.30;101043.30;1746274;80;21106;-62
2021/07/26 07:51:54;;;;;;;9.10;6.28;;;;;;;27.61;44.66;101038.59;1740582;81;21089;-63
2021/07/26 07:54:21;;;;;;;9.58;6.22;;;;;;;27.66;44.79;101033.36;1779383;80;21548;-62
2021/07/26 07:56:52;;;;;;;11.28;6.87;;;;;;;27.72;45.23;101036.53;1752837;80;21026;-61
2021/07/26 07:59:21;;;;;;;8.63;7.35;;;;;;;27.76;45.21;101036.92;1742557;81;21045;-62
2021/07/26 08:01:49;;;;;;;9.88;6.55;;;;;;;27.80;45.50;101043.53;1753453;80;21542;-61
2021/07/26 08:04:15;;;;;;;9.28;7.28;;;;;;;27.85;45.10;101039.63;1751322;80;21080;-62
2021/07/26 08:06:43;;;;;;;9.05;6.37;;;;;;;27.91;44.33;101036.05;1753352;80;21131;-62
2021/07/26 08:09:10;;;;;;;10.53;7.08;;;;;;;27.96;44.54;101035.42;1761601;80;21034;-62
2021/07/26 08:11:37;;;;;;;10.28;7.30;;;;;;;28.02;45.76;101034.52;1728812;81;21133;-63
2021/07/26 08:14:04;;;;;;;9.93;7.28;;;;;;;28.07;45.72;101031.96;1755829;79;21120;-62
2021/07/26 08:16:31;;;;;;;9.38;6.55;;;;;;;28.16;45.69;101027.93;1751155;81;21128;-62
2021/07/26 08:18:58;;;;;;;9.03;7.17;;;;;;;28.23;45.28;101022.45;1733196;81;21079;-63
2021/07/26 08:21:26;;;;;;;13.85;8.18;;;;;;;28.31;45.85;101022.66;1730527;81;21065;-63
2021/07/26 08:23:53;;;;;;;10.50;7.40;;;;;;;28.38;45.90;101023.94;1756187;80;21134;-64
2021/07/26 08:26:21;;;;;;;10.82;7.75;;;;;;;28.45;46.27;101026.88;1732643;81;21226;-64
2021/07/26 08:28:48;;;;;;;13.25;9.23;;;;;;;28.49;46.42;101025.90;1759341;81;21048;-63
2021/07/26 08:31:14;;;;;;;12.05;7.92;;;;;;;28.52;45.36;101026.80;1740280;80;21086;-63
2021/07/26 08:33:41;;;;;;;10.48;8.53;;;;;;;28.54;45.91;101028.75;1761111;79;21058;-61
2021/07/26 08:36:07;;;;;;;10.65;7.83;;;;;;;28.53;46.41;101023.87;1764312;79;21051;-60
2021/07/26 08:38:34;;;;;;;9.58;7.17;;;;;;;28.54;46.60;101024.69;1716714;81;21103;-63
2021/07/26 08:41:00;;;;;;;12.28;7.25;;;;;;;28.59;46.67;101024.87;1764338;79;21606;-62
2021/07/26 08:43:28;;;;;;;10.05;7.10;;;;;;;28.68;46.52;101025.38;1752591;79;21038;-61
2021/07/26 08:45:54;;;;;;;12.00;7.72;;;;;;;28.77;46.22;101022.67;1759246;79;21034;-63
2021/07/26 08:48:23;;;;;;;10.85;7.95;;;;;;;28.89;43.65;101022.72;1760258;79;21114;-64
2021/07/26 08:50:50;;;;;;;9.90;7.37;;;;;;;29.02;43.80;101025.79;1756557;81;21843;-62
2021/07/26 08:53:19;;;;;;;15.65;8.48;;;;;;;29.10;44.76;101022.72;1758035;79;21490;-61
2021/07/26 08:55:48;;;;;;;12.35;7.70;;;;;;;29.16;44.84;101014.22;1758230;79;21065;-63
2021/07/26 08:58:15;;;;;;;10.85;6.45;;;;;;;29.21;44.22;101015.20;1751475;80;21159;-64
2021/07/26 09:00:42;;;;;;;15.53;7.95;;;;;;;29.30;44.56;101021.11;1734622;81;21523;-63
2021/07/26 09:03:09;;;;;;;10.25;7.78;;;;;;;29.39;43.65;101013.49;1743754;79;21169;-64
2021/07/26 09:05:35;;;;;;;10.98;6.45;;;;;;;29.45;43.23;101013.89;1737116;80;21054;-64
2021/07/26 09:08:02;;;;;;;9.23;6.90;;;;;;;29.49;42.62;101010.18;1759545;79;22372;-61
2021/07/26 09:10:35;;;;;;;9.83;6.25;;;;;;;29.58;42.55;101011.50;1757508;81;21065;-55
2021/07/26 09:13:02;;;;;;;8.25;5.87;;;;;;;29.65;41.68;101007.61;1755727;81;21144;-63
2021/07/26 09:15:37;;;;;;;7.45;5.90;;;;;;;29.74;41.61;101008.61;1758518;81;21171;-64
2021/07/26 09:18:09;;;;;;;;;;;;;;;29.82;40.97;101002.36;1741742;79;21144;-64
2021/07/26 09:20:39;;;;;;;8.98;6.65;;;;;;;29.91;41.45;101001.47;1764144;79;20497;-63
2021/07/26 09:23:13;;;;;;;9.80;6.90;;;;;;;29.94;40.93;100999.64;1765533;79;21015;-63
2021/07/26 09:25:47;;;;;;;8.30;5.75;;;;;;;30.02;40.47;101002.51;1752570;79;21066;-63
2021/07/26 09:28:16;;;;;;;10.48;5.65;;;;;;;30.13;39.98;101000.86;1739841;81;21802;-63
2021/07/26 09:30:47;;;;;;;9.48;6.12;;;;;;;30.17;39.17;101001.48;1753385;79;21113;-64
2021/07/26 09:33:27;;;;;;;8.23;6.03;;;;;;;30.23;38.16;100993.45;1761166;79;21046;-65
2021/07/26 09:36:20;;;;;;;9.65;5.92;;;;;;;30.30;37.74;100988.73;1753445;80;21090;-65
2021/07/26 09:38:58;;;;;;;8.90;5.75;;;;;;;30.37;37.46;100989.45;1786312;78;21098;-63
2021/07/26 09:41:43;;;;;;;12.47;6.28;;;;;;;30.42;37.00;100986.02;1783153;78;21118;-62
2021/07/26 09:44:10;;;;;;;11.50;6.58;;;;;;;30.48;37.83;100991.31;1783729;78;21068;-65
2021/07/26 09:46:39;;;;;;;11.25;5.58;;;;;;;30.59;36.09;100988.25;1753106;80;21058;-64
2021/07/26 09:49:14;;;;;;;9.08;6.33;;;;;;;30.63;36.52;100994.02;1768172;79;21064;-64
2021/07/26 09:51:41;;;;;;;10.00;5.93;;;;;;;30.66;36.55;100982.68;1754763;79;21039;-65
2021/07/26 09:54:08;;;;;;;9.45;5.60;;;;;;;30.70;36.81;100983.86;1782521;78;21026;-65
2021/07/26 09:56:34;;;;;;;9.53;6.65;;;;;;;30.68;36.70;100985.97;1718284;81;20999;-64
2021/07/26 09:59:01;;;;;;;7.58;5.87;;;;;;;30.65;37.39;100986.45;1762786;79;21011;-64
2021/07/26 10:01:29;;;;;;;9.28;6.60;;;;;;;30.63;37.72;100989.95;1734708;79;21091;-62
2021/07/26 10:03:58;;;;;;;9.30;6.22;;;;;;;30.62;37.66;100980.98;1763654;79;21078;-63
2021/07/26 10:06:27;;;;;;;11.38;6.20;;;;;;;30.61;38.10;100989.37;1763477;79;21101;-64
2021/07/26 10:08:55;;;;;;;10.15;6.83;;;;;;;30.58;37.78;100986.63;1734136;80;21091;-63
2021/07/26 10:11:22;;;;;;;9.25;6.17;;;;;;;30.59;37.89;100984.18;1769728;79;21090;-64
2021/07/26 10:13:48;;;;;;;7.40;5.78;;;;;;;30.60;38.33;100985.84;1738916;80;21696;-68
2021/07/26 10:16:18;;;;;;;6.90;5.22;;;;;;;30.62;36.31;100982.89;1764092;80;21552;-62
2021/07/26 10:18:48;;;;;;;8.70;6.17;;;;;;;30.59;36.71;100982.82;1753511;80;21100;-62
2021/07/26 10:21:19;;;;;;;8.53;5.85;;;;;;;30.53;36.45;100980.55;1765982;79;21620;-64
2021/07/26 10:23:58;;;;;;;9.30;6.00;;;;;;;30.50;37.96;100982.38;1763070;79;21082;-64
2021/07/26 10:26:41;;;;;;;9.48;6.15;;;;;;;30.52;38.10;100984.32;1765024;79;21645;-63
2021/07/26 10:29:08;;;;;;;9.03;5.95;;;;;;;30.63;39.23;100980.44;1741463;79;20998;-63
2021/07/26 10:31:35;;;;;;;12.25;5.95;;;;;;;30.78;38.59;100980.73;1748985;79;21466;-64
2021/07/26 10:36:52;;;;;;;10.53;5.83;;;;;;;31.08;38.00;100969.61;1823549;75;22872;-63
2021/07/26 10:39:19;;;;;;;9.60;4.87;;;;;;;31.14;37.26;100971.91;1788991;78;21586;-63
2021/07/26 10:41:56;;;;;;;9.15;5.55;;;;;;;31.22;36.57;100981.02;1774890;78;20981;-64
2021/07/26 10:44:29;;;;;;;7.53;6.03;;;;;;;31.25;36.80;100975.09;1779131;78;21086;-62
2021/07/26 10:47:07;;;;;;;8.23;5.45;;;;;;;31.27;37.33;100972.09;1753506;80;20975;-63
2021/07/26 10:49:53;;;;;;;7.42;5.87;;;;;;;31.28;37.45;100961.52;1750421;80;20968;-63
2021/07/26 10:52:28;;;;;;;8.33;5.75;;;;;;;31.27;36.59;100962.06;1779017;78;21089;-63
2021/07/26 10:54:58;;;;;;;8.50;6.10;;;;;;;31.22;37.70;100962.50;1785373;78;21709;-64
2021/07/26 10:57:43;;;;;;;9.08;6.15;;;;;;;31.16;37.65;100961.60;1785221;78;21037;-64
2021/07/26 11:00:17;;;;;;;9.20;5.80;;;;;;;31.13;37.33;100953.94;1774082;79;21074;-63
2021/07/26 11:02:46;;;;;;;7.33;5.65;;;;;;;31.05;37.25;100955.70;1769119;79;21088;-69
2021/07/26 11:05:31;;;;;;;9.08;5.67;;;;;;;30.92;37.62;100948.13;1783684;78;21011;-71
2021/07/26 11:08:21;;;;;;;7.37;5.47;;;;;;;30.85;37.12;100946.11;1777138;79;21616;-69
2021/07/26 11:10:56;;;;;;;7.47;5.65;;;;;;;30.76;37.29;100947.55;1756620;80;21094;-69
2021/07/26 11:13:42;;;;;;;9.18;5.72;;;;;;;30.70;37.50;100943.12;1784775;78;21613;-70
2021/07/26 11:16:09;;;;;;;8.35;6.37;;;;;;;30.65;37.70;100950.63;1782114;78;21120;-70
2021/07/26 11:18:39;;;;;;;10.43;5.92;;;;;;;30.61;37.58;100950.00;1781965;78;21132;-69
2021/07/26 11:21:21;;;;;;;8.60;5.42;;;;;;;30.59;37.83;100950.78;1782858;78;21309;-68
2021/07/26 11:23:54;;;;;;;10.13;6.15;;;;;;;30.56;37.51;100944.77;1776577;78;21075;-69
2021/07/26 11:26:31;;;;;;;9.95;5.75;;;;;;;30.56;38.20;100952.07;1783081;78;20985;-68
2021/07/26 11:29:03;;;;;;;8.35;5.85;;;;;;;30.56;38.14;100942.56;1742856;80;21050;-69